sensor_id;sensor_type;location;lat;lon;timestamp;temperature;humidity
12434;DHT22;6281;49.038;8.372;2022-10-30T00:01:00;14.40;99.90
12434;DHT22;6281;49.038;8.372;2022-10-30T00:03:27;14.50;99.90
12434;DHT22;6281;49.038;8.372;2022-10-30T00:05:58;14.60;99.90
12434;DHT22;6281;49.038;8.372;2022-10-30T00:08:25;14.50;99.90
12434;DHT22;6281;49.038;8.372;2022-10-30T00:10:52;14.50;99.90
12434;DHT22;6281;49.038;8.372;2022-10-30T00:13:20;14.50;99.90
12434;DHT22;6281;49.038;8.372;2022-10-30T00:15:49;14.40;99.90
12434;DHT22;6281;49.038;8.372;2022-10-30T00:18:16;14.30;99.90
12434;DHT22;6281;49.038;8.372;2022-10-30T00:20:43;14.40;99.90
12434;DHT22;6281;49.038;8.372;2022-10-30T00:23:12;14.40;99.90
12434;DHT22;6281;49.038;8.372;2022-10-30T00:25:39;14.40;99.90
12434;DHT22;6281;49.038;8.372;2022-10-30T00:28:06;14.30;99.90
12434;DHT22;6281;49.038;8.372;2022-10-30T00:30:34;14.30;99.90
12434;DHT22;6281;49.038;8.372;2022-10-30T00:33:01;14.40;99.90
12434;DHT22;6281;49.038;8.372;2022-10-30T00:35:29;14.40;99.90
12434;DHT22;6281;49.038;8.372;2022-10-30T00:37:56;14.60;99.90
12434;DHT22;6281;49.038;8.372;2022-10-30T00:40:24;14.60;99.90
12434;DHT22;6281;49.038;8.372;2022-10-30T00:42:51;14.60;99.90
12434;DHT22;6281;49.038;8.372;2022-10-30T00:45:18;14.50;99.90
12434;DHT22;6281;49.038;8.372;2022-10-30T00:47:50;14.30;99.90
12434;DHT22;6281;49.038;8.372;2022-10-30T00:50:20;14.20;99.90
12434;DHT22;6281;49.038;8.372;2022-10-30T00:52:53;14.30;99.90
12434;DHT22;6281;49.038;8.372;2022-10-30T00:55:29;14.30;99.90
12434;DHT22;6281;49.038;8.372;2022-10-30T00:57:58;14.30;99.90
12434;DHT22;6281;49.038;8.372;2022-10-30T01:00:27;14.40;99.90
12434;DHT22;6281;49.038;8.372;2022-10-30T01:02:55;14.30;99.90
12434;DHT22;6281;49.038;8.372;2022-10-30T01:05:26;14.30;99.90
12434;DHT22;6281;49.038;8.372;2022-10-30T01:07:54;14.10;99.90
12434;DHT22;6281;49.038;8.372;2022-10-30T01:10:21;14.20;99.90
12434;DHT22;6281;49.038;8.372;2022-10-30T01:12:51;14.30;99.90
12434;DHT22;6281;49.038;8.372;2022-10-30T01:15:23;14.40;99.90
12434;DHT22;6281;49.038;8.372;2022-10-30T01:23:38;14.20;99.90
12434;DHT22;6281;49.038;8.372;2022-10-30T01:26:14;14.20;99.90
12434;DHT22;6281;49.038;8.372;2022-10-30T01:28:58;14.10;99.90
12434;DHT22;6281;49.038;8.372;2022-10-30T01:31:39;14.10;99.90
12434;DHT22;6281;49.038;8.372;2022-10-30T01:34:17;14.20;99.90
12434;DHT22;6281;49.038;8.372;2022-10-30T01:36:48;14.10;99.90
12434;DHT22;6281;49.038;8.372;2022-10-30T01:39:20;14.20;99.90
12434;DHT22;6281;49.038;8.372;2022-10-30T01:41:48;13.90;99.90
12434;DHT22;6281;49.038;8.372;2022-10-30T01:44:23;14.10;99.90
12434;DHT22;6281;49.038;8.372;2022-10-30T01:47:01;14.00;99.90
12434;DHT22;6281;49.038;8.372;2022-10-30T01:50:00;14.00;99.90
12434;DHT22;6281;49.038;8.372;2022-10-30T01:52:35;14.10;99.90
12434;DHT22;6281;49.038;8.372;2022-10-30T01:55:13;14.10;99.90
12434;DHT22;6281;49.038;8.372;2022-10-30T01:57:50;14.10;99.90
12434;DHT22;6281;49.038;8.372;2022-10-30T02:00:22;14.10;99.90
12434;DHT22;6281;49.038;8.372;2022-10-30T02:02:50;14.10;99.90
12434;DHT22;6281;49.038;8.372;2022-10-30T02:05:24;14.10;99.90
12434;DHT22;6281;49.038;8.372;2022-10-30T02:07:52;14.20;99.90
12434;DHT22;6281;49.038;8.372;2022-10-30T02:10:20;14.00;99.90
12434;DHT22;6281;49.038;8.372;2022-10-30T02:12:47;14.00;99.90
12434;DHT22;6281;49.038;8.372;2022-10-30T02:15:15;13.90;99.90
12434;DHT22;6281;49.038;8.372;2022-10-30T02:17:44;13.80;99.90
12434;DHT22;6281;49.038;8.372;2022-10-30T02:20:16;13.70;99.90
12434;DHT22;6281;49.038;8.372;2022-10-30T02:22:43;13.60;99.90
12434;DHT22;6281;49.038;8.372;2022-10-30T02:25:09;13.60;99.90
12434;DHT22;6281;49.038;8.372;2022-10-30T02:27:37;13.60;99.90
12434;DHT22;6281;49.038;8.372;2022-10-30T02:30:05;13.60;99.90
12434;DHT22;6281;49.038;8.372;2022-10-30T02:32:32;13.50;99.90
12434;DHT22;6281;49.038;8.372;2022-10-30T02:34:59;13.70;99.90
12434;DHT22;6281;49.038;8.372;2022-10-30T02:37:27;13.70;99.90
12434;DHT22;6281;49.038;8.372;2022-10-30T02:39:55;13.50;99.90
12434;DHT22;6281;49.038;8.372;2022-10-30T02:42:22;13.60;99.90
12434;DHT22;6281;49.038;8.372;2022-10-30T02:44:49;13.50;99.90
12434;DHT22;6281;49.038;8.372;2022-10-30T02:47:16;13.40;99.90
12434;DHT22;6281;49.038;8.372;2022-10-30T02:49:44;13.30;99.90
12434;DHT22;6281;49.038;8.372;2022-10-30T02:52:11;13.40;99.90
12434;DHT22;6281;49.038;8.372;2022-10-30T02:54:40;13.40;99.90
12434;DHT22;6281;49.038;8.372;2022-10-30T02:57:08;13.50;99.90
12434;DHT22;6281;49.038;8.372;2022-10-30T02:59:35;13.50;99.90
12434;DHT22;6281;49.038;8.372;2022-10-30T03:02:02;13.50;99.90
12434;DHT22;6281;49.038;8.372;2022-10-30T03:04:29;13.40;99.90
12434;DHT22;6281;49.038;8.372;2022-10-30T03:06:56;13.30;99.90
12434;DHT22;6281;49.038;8.372;2022-10-30T03:09:23;13.30;99.90
12434;DHT22;6281;49.038;8.372;2022-10-30T03:11:51;13.30;99.90
12434;DHT22;6281;49.038;8.372;2022-10-30T03:14:18;13.40;99.90
12434;DHT22;6281;49.038;8.372;2022-10-30T03:16:45;13.30;99.90
12434;DHT22;6281;49.038;8.372;2022-10-30T03:19:12;13.30;99.90
12434;DHT22;6281;49.038;8.372;2022-10-30T03:21:39;13.20;99.90
12434;DHT22;6281;49.038;8.372;2022-10-30T03:24:06;13.10;99.90
12434;DHT22;6281;49.038;8.372;2022-10-30T03:26:33;13.10;99.90
12434;DHT22;6281;49.038;8.372;2022-10-30T03:29:01;13.10;99.90
12434;DHT22;6281;49.038;8.372;2022-10-30T03:31:29;13.10;99.90
12434;DHT22;6281;49.038;8.372;2022-10-30T03:33:57;13.10;99.90
12434;DHT22;6281;49.038;8.372;2022-10-30T03:36:24;13.00;99.90
12434;DHT22;6281;49.038;8.372;2022-10-30T03:38:51;13.00;99.90
12434;DHT22;6281;49.038;8.372;2022-10-30T03:41:18;13.00;99.90
12434;DHT22;6281;49.038;8.372;2022-10-30T03:43:45;13.00;99.90
12434;DHT22;6281;49.038;8.372;2022-10-30T03:46:15;13.00;99.90
12434;DHT22;6281;49.038;8.372;2022-10-30T03:48:42;12.90;99.90
12434;DHT22;6281;49.038;8.372;2022-10-30T03:51:09;12.70;99.90
12434;DHT22;6281;49.038;8.372;2022-10-30T03:53:37;12.70;99.90
12434;DHT22;6281;49.038;8.372;2022-10-30T03:56:05;12.80;99.90
12434;DHT22;6281;49.038;8.372;2022-10-30T03:58:32;12.80;99.90
12434;DHT22;6281;49.038;8.372;2022-10-30T04:01:02;12.80;99.90
12434;DHT22;6281;49.038;8.372;2022-10-30T04:03:31;12.70;99.90
12434;DHT22;6281;49.038;8.372;2022-10-30T04:05:58;12.70;99.90
12434;DHT22;6281;49.038;8.372;2022-10-30T04:08:25;12.50;99.90
12434;DHT22;6281;49.038;8.372;2022-10-30T04:10:52;12.40;99.90
12434;DHT22;6281;49.038;8.372;2022-10-30T04:13:19;12.60;99.90
12434;DHT22;6281;49.038;8.372;2022-10-30T04:15:46;12.60;99.90
12434;DHT22;6281;49.038;8.372;2022-10-30T04:18:14;12.70;99.90
12434;DHT22;6281;49.038;8.372;2022-10-30T04:20:44;12.70;99.90
12434;DHT22;6281;49.038;8.372;2022-10-30T04:23:13;12.70;99.90
12434;DHT22;6281;49.038;8.372;2022-10-30T04:25:40;12.70;99.90
12434;DHT22;6281;49.038;8.372;2022-10-30T04:28:07;12.60;99.90
12434;DHT22;6281;49.038;8.372;2022-10-30T04:30:34;12.60;99.90
12434;DHT22;6281;49.038;8.372;2022-10-30T04:33:04;12.60;99.90
12434;DHT22;6281;49.038;8.372;2022-10-30T04:35:33;12.60;99.90
12434;DHT22;6281;49.038;8.372;2022-10-30T04:38:04;12.60;99.90
12434;DHT22;6281;49.038;8.372;2022-10-30T04:40:33;12.30;99.90
12434;DHT22;6281;49.038;8.372;2022-10-30T04:43:00;12.30;99.90
12434;DHT22;6281;49.038;8.372;2022-10-30T04:45:28;12.20;99.90
12434;DHT22;6281;49.038;8.372;2022-10-30T04:48:00;12.30;99.90
12434;DHT22;6281;49.038;8.372;2022-10-30T04:50:27;12.40;99.90
12434;DHT22;6281;49.038;8.372;2022-10-30T04:52:58;12.40;99.90
12434;DHT22;6281;49.038;8.372;2022-10-30T04:55:27;12.30;99.90
12434;DHT22;6281;49.038;8.372;2022-10-30T04:57:55;12.40;99.90
12434;DHT22;6281;49.038;8.372;2022-10-30T05:00:22;12.40;99.90
12434;DHT22;6281;49.038;8.372;2022-10-30T05:02:49;12.30;99.90
12434;DHT22;6281;49.038;8.372;2022-10-30T05:05:16;12.30;99.90
12434;DHT22;6281;49.038;8.372;2022-10-30T05:07:43;12.30;99.90
12434;DHT22;6281;49.038;8.372;2022-10-30T05:10:11;12.20;99.90
12434;DHT22;6281;49.038;8.372;2022-10-30T05:12:41;12.00;99.90
12434;DHT22;6281;49.038;8.372;2022-10-30T05:15:08;11.80;99.90
12434;DHT22;6281;49.038;8.372;2022-10-30T05:17:35;11.80;99.90
12434;DHT22;6281;49.038;8.372;2022-10-30T05:20:03;11.70;99.90
12434;DHT22;6281;49.038;8.372;2022-10-30T05:22:30;11.90;99.90
12434;DHT22;6281;49.038;8.372;2022-10-30T05:24:57;11.90;99.90
12434;DHT22;6281;49.038;8.372;2022-10-30T05:27:24;11.90;99.90
12434;DHT22;6281;49.038;8.372;2022-10-30T05:29:52;12.00;99.90
12434;DHT22;6281;49.038;8.372;2022-10-30T05:32:19;11.90;99.90
12434;DHT22;6281;49.038;8.372;2022-10-30T05:34:46;11.70;99.90
12434;DHT22;6281;49.038;8.372;2022-10-30T05:37:13;11.80;99.90
12434;DHT22;6281;49.038;8.372;2022-10-30T05:39:40;11.80;99.90
12434;DHT22;6281;49.038;8.372;2022-10-30T05:42:07;11.80;99.90
12434;DHT22;6281;49.038;8.372;2022-10-30T05:44:34;11.80;99.90
12434;DHT22;6281;49.038;8.372;2022-10-30T05:47:03;11.90;99.90
12434;DHT22;6281;49.038;8.372;2022-10-30T05:49:29;11.80;99.90
12434;DHT22;6281;49.038;8.372;2022-10-30T05:51:56;11.70;99.90
12434;DHT22;6281;49.038;8.372;2022-10-30T05:54:23;11.40;99.90
12434;DHT22;6281;49.038;8.372;2022-10-30T05:56:50;11.50;99.90
12434;DHT22;6281;49.038;8.372;2022-10-30T05:59:17;11.60;99.90
12434;DHT22;6281;49.038;8.372;2022-10-30T06:01:44;11.70;99.90
12434;DHT22;6281;49.038;8.372;2022-10-30T06:04:12;11.70;99.90
12434;DHT22;6281;49.038;8.372;2022-10-30T06:06:39;11.60;99.90
12434;DHT22;6281;49.038;8.372;2022-10-30T06:09:06;11.70;99.90
12434;DHT22;6281;49.038;8.372;2022-10-30T06:11:33;11.70;99.90
12434;DHT22;6281;49.038;8.372;2022-10-30T06:14:00;11.60;99.90
12434;DHT22;6281;49.038;8.372;2022-10-30T06:16:27;11.60;99.90
12434;DHT22;6281;49.038;8.372;2022-10-30T06:18:54;11.60;99.90
12434;DHT22;6281;49.038;8.372;2022-10-30T06:21:22;11.50;99.90
12434;DHT22;6281;49.038;8.372;2022-10-30T06:23:49;11.60;99.90
12434;DHT22;6281;49.038;8.372;2022-10-30T06:26:16;11.60;99.90
12434;DHT22;6281;49.038;8.372;2022-10-30T06:28:43;11.70;99.90
12434;DHT22;6281;49.038;8.372;2022-10-30T06:31:09;11.70;99.90
12434;DHT22;6281;49.038;8.372;2022-10-30T06:33:36;11.60;99.90
12434;DHT22;6281;49.038;8.372;2022-10-30T06:36:04;11.60;99.90
12434;DHT22;6281;49.038;8.372;2022-10-30T06:38:32;11.40;99.90
12434;DHT22;6281;49.038;8.372;2022-10-30T06:41:00;11.40;99.90
12434;DHT22;6281;49.038;8.372;2022-10-30T06:43:27;11.40;99.90
12434;DHT22;6281;49.038;8.372;2022-10-30T06:45:56;11.50;99.90
12434;DHT22;6281;49.038;8.372;2022-10-30T06:48:23;11.60;99.90
12434;DHT22;6281;49.038;8.372;2022-10-30T06:50:53;11.50;99.90
12434;DHT22;6281;49.038;8.372;2022-10-30T06:53:20;11.60;99.90
12434;DHT22;6281;49.038;8.372;2022-10-30T06:55:54;11.70;99.90
12434;DHT22;6281;49.038;8.372;2022-10-30T06:58:21;11.70;99.90
12434;DHT22;6281;49.038;8.372;2022-10-30T07:00:48;11.80;99.90
12434;DHT22;6281;49.038;8.372;2022-10-30T07:03:15;11.90;99.90
12434;DHT22;6281;49.038;8.372;2022-10-30T07:05:42;12.00;99.90
12434;DHT22;6281;49.038;8.372;2022-10-30T07:08:09;12.10;99.90
12434;DHT22;6281;49.038;8.372;2022-10-30T07:10:36;12.20;99.90
12434;DHT22;6281;49.038;8.372;2022-10-30T07:13:05;12.30;99.90
12434;DHT22;6281;49.038;8.372;2022-10-30T07:15:32;12.50;99.90
12434;DHT22;6281;49.038;8.372;2022-10-30T07:18:00;12.60;99.90
12434;DHT22;6281;49.038;8.372;2022-10-30T07:20:29;12.70;99.90
12434;DHT22;6281;49.038;8.372;2022-10-30T07:22:56;12.80;99.90
12434;DHT22;6281;49.038;8.372;2022-10-30T07:25:23;12.80;99.90
12434;DHT22;6281;49.038;8.372;2022-10-30T07:27:52;12.80;99.90
12434;DHT22;6281;49.038;8.372;2022-10-30T07:30:22;12.70;99.90
12434;DHT22;6281;49.038;8.372;2022-10-30T07:32:56;12.80;99.90
12434;DHT22;6281;49.038;8.372;2022-10-30T07:35:23;12.80;99.90
12434;DHT22;6281;49.038;8.372;2022-10-30T07:37:50;12.80;99.90
12434;DHT22;6281;49.038;8.372;2022-10-30T07:40:17;12.80;99.90
12434;DHT22;6281;49.038;8.372;2022-10-30T07:42:44;13.00;99.90
12434;DHT22;6281;49.038;8.372;2022-10-30T07:45:11;13.10;99.90
12434;DHT22;6281;49.038;8.372;2022-10-30T07:47:41;13.20;99.90
12434;DHT22;6281;49.038;8.372;2022-10-30T07:50:09;13.40;99.90
12434;DHT22;6281;49.038;8.372;2022-10-30T07:52:36;13.50;99.90
12434;DHT22;6281;49.038;8.372;2022-10-30T07:55:04;13.50;99.90
12434;DHT22;6281;49.038;8.372;2022-10-30T07:57:34;13.60;99.90
12434;DHT22;6281;49.038;8.372;2022-10-30T08:00:02;13.70;99.90
12434;DHT22;6281;49.038;8.372;2022-10-30T08:02:29;13.80;99.90
12434;DHT22;6281;49.038;8.372;2022-10-30T08:04:57;13.90;99.90
12434;DHT22;6281;49.038;8.372;2022-10-30T08:07:28;13.90;99.90
12434;DHT22;6281;49.038;8.372;2022-10-30T08:09:55;14.10;99.90
12434;DHT22;6281;49.038;8.372;2022-10-30T08:12:22;14.30;99.90
12434;DHT22;6281;49.038;8.372;2022-10-30T08:14:49;14.50;99.90
12434;DHT22;6281;49.038;8.372;2022-10-30T08:17:16;14.70;99.90
12434;DHT22;6281;49.038;8.372;2022-10-30T08:19:43;15.00;99.90
12434;DHT22;6281;49.038;8.372;2022-10-30T08:22:12;15.00;99.90
12434;DHT22;6281;49.038;8.372;2022-10-30T08:24:39;15.20;99.90
12434;DHT22;6281;49.038;8.372;2022-10-30T08:27:06;15.30;99.90
12434;DHT22;6281;49.038;8.372;2022-10-30T08:29:33;15.50;99.90
12434;DHT22;6281;49.038;8.372;2022-10-30T08:32:00;16.50;99.90
12434;DHT22;6281;49.038;8.372;2022-10-30T08:34:27;16.10;99.90
12434;DHT22;6281;49.038;8.372;2022-10-30T08:36:57;16.30;99.90
12434;DHT22;6281;49.038;8.372;2022-10-30T08:39:26;16.60;99.90
12434;DHT22;6281;49.038;8.372;2022-10-30T08:41:53;17.60;99.90
12434;DHT22;6281;49.038;8.372;2022-10-30T08:44:20;18.40;99.90
12434;DHT22;6281;49.038;8.372;2022-10-30T08:46:46;19.10;99.90
12434;DHT22;6281;49.038;8.372;2022-10-30T08:49:13;18.60;99.90
12434;DHT22;6281;49.038;8.372;2022-10-30T08:51:40;18.70;99.90
12434;DHT22;6281;49.038;8.372;2022-10-30T08:54:08;18.50;99.90
12434;DHT22;6281;49.038;8.372;2022-10-30T08:56:37;18.70;99.90
12434;DHT22;6281;49.038;8.372;2022-10-30T08:59:04;18.90;99.90
12434;DHT22;6281;49.038;8.372;2022-10-30T09:01:31;19.70;99.90
12434;DHT22;6281;49.038;8.372;2022-10-30T09:03:58;20.20;99.90
12434;DHT22;6281;49.038;8.372;2022-10-30T09:06:24;20.80;99.90
12434;DHT22;6281;49.038;8.372;2022-10-30T09:08:51;21.20;99.90
12434;DHT22;6281;49.038;8.372;2022-10-30T09:11:18;20.00;99.90
12434;DHT22;6281;49.038;8.372;2022-10-30T09:13:47;19.00;99.90
12434;DHT22;6281;49.038;8.372;2022-10-30T09:16:14;18.00;99.90
12434;DHT22;6281;49.038;8.372;2022-10-30T09:18:41;17.70;99.90
12434;DHT22;6281;49.038;8.372;2022-10-30T09:21:07;17.70;99.90
12434;DHT22;6281;49.038;8.372;2022-10-30T09:23:34;17.70;99.90
12434;DHT22;6281;49.038;8.372;2022-10-30T09:26:01;17.70;99.90
12434;DHT22;6281;49.038;8.372;2022-10-30T09:28:28;18.00;99.90
12434;DHT22;6281;49.038;8.372;2022-10-30T09:30:56;17.90;99.90
12434;DHT22;6281;49.038;8.372;2022-10-30T09:33:23;18.00;99.90
12434;DHT22;6281;49.038;8.372;2022-10-30T09:35:51;18.00;99.90
12434;DHT22;6281;49.038;8.372;2022-10-30T09:38:18;18.10;99.90
12434;DHT22;6281;49.038;8.372;2022-10-30T09:40:57;18.20;99.90
12434;DHT22;6281;49.038;8.372;2022-10-30T09:43:35;18.20;99.90
12434;DHT22;6281;49.038;8.372;2022-10-30T09:46:20;18.20;99.90
12434;DHT22;6281;49.038;8.372;2022-10-30T09:49:02;18.40;99.90
12434;DHT22;6281;49.038;8.372;2022-10-30T09:52:00;18.40;99.90
12434;DHT22;6281;49.038;8.372;2022-10-30T09:54:38;18.60;99.90
12434;DHT22;6281;49.038;8.372;2022-10-30T09:57:15;18.60;99.90
12434;DHT22;6281;49.038;8.372;2022-10-30T09:59:56;18.60;99.90
12434;DHT22;6281;49.038;8.372;2022-10-30T10:02:38;18.70;99.90
12434;DHT22;6281;49.038;8.372;2022-10-30T10:05:15;18.60;99.90
12434;DHT22;6281;49.038;8.372;2022-10-30T10:07:46;18.70;99.90
12434;DHT22;6281;49.038;8.372;2022-10-30T10:10:19;18.90;99.90
12434;DHT22;6281;49.038;8.372;2022-10-30T10:12:49;18.90;99.90
12434;DHT22;6281;49.038;8.372;2022-10-30T10:15:24;19.00;99.90
12434;DHT22;6281;49.038;8.372;2022-10-30T10:17:58;19.00;99.90
12434;DHT22;6281;49.038;8.372;2022-10-30T10:20:31;19.20;99.90
12434;DHT22;6281;49.038;8.372;2022-10-30T10:23:03;19.30;99.90
12434;DHT22;6281;49.038;8.372;2022-10-30T10:25:36;19.40;99.90
12434;DHT22;6281;49.038;8.372;2022-10-30T10:28:14;19.40;99.90
12434;DHT22;6281;49.038;8.372;2022-10-30T10:30:49;20.00;99.90
12434;DHT22;6281;49.038;8.372;2022-10-30T10:33:28;20.30;99.90
12434;DHT22;6281;49.038;8.372;2022-10-30T10:36:07;20.10;99.90
12434;DHT22;6281;49.038;8.372;2022-10-30T10:38:46;20.90;99.90
12434;DHT22;6281;49.038;8.372;2022-10-30T10:41:19;20.90;99.90
12434;DHT22;6281;49.038;8.372;2022-10-30T10:44:00;23.40;99.90
12434;DHT22;6281;49.038;8.372;2022-10-30T10:46:46;22.90;99.90
12434;DHT22;6281;49.038;8.372;2022-10-30T10:49:29;21.90;99.90
12434;DHT22;6281;49.038;8.372;2022-10-30T10:52:02;21.90;99.90
12434;DHT22;6281;49.038;8.372;2022-10-30T10:54:34;21.90;99.90
12434;DHT22;6281;49.038;8.372;2022-10-30T10:57:03;22.00;99.90
12434;DHT22;6281;49.038;8.372;2022-10-30T10:59:33;21.60;99.90
12434;DHT22;6281;49.038;8.372;2022-10-30T11:04:42;21.20;99.90
12434;DHT22;6281;49.038;8.372;2022-10-30T11:07:16;21.00;99.90
12434;DHT22;6281;49.038;8.372;2022-10-30T11:09:45;21.10;99.90
12434;DHT22;6281;49.038;8.372;2022-10-30T11:12:13;21.00;99.90
12434;DHT22;6281;49.038;8.372;2022-10-30T11:14:40;20.80;99.90
12434;DHT22;6281;49.038;8.372;2022-10-30T11:17:31;21.10;99.90
12434;DHT22;6281;49.038;8.372;2022-10-30T11:20:12;21.50;99.90
12434;DHT22;6281;49.038;8.372;2022-10-30T11:22:45;22.20;99.90
12434;DHT22;6281;49.038;8.372;2022-10-30T11:25:19;21.80;99.90
12434;DHT22;6281;49.038;8.372;2022-10-30T11:27:48;21.40;99.90
12434;DHT22;6281;49.038;8.372;2022-10-30T11:30:20;21.60;99.90
12434;DHT22;6281;49.038;8.372;2022-10-30T11:32:47;22.00;99.90
12434;DHT22;6281;49.038;8.372;2022-10-30T11:35:19;21.90;99.90
12434;DHT22;6281;49.038;8.372;2022-10-30T11:37:48;21.20;99.90
12434;DHT22;6281;49.038;8.372;2022-10-30T11:40:17;22.10;99.90
12434;DHT22;6281;49.038;8.372;2022-10-30T11:42:46;22.50;99.90
12434;DHT22;6281;49.038;8.372;2022-10-30T11:45:16;22.40;99.90
12434;DHT22;6281;49.038;8.372;2022-10-30T11:47:44;23.60;99.90
12434;DHT22;6281;49.038;8.372;2022-10-30T11:50:19;24.70;99.90
12434;DHT22;6281;49.038;8.372;2022-10-30T11:52:47;26.10;99.90
12434;DHT22;6281;49.038;8.372;2022-10-30T11:55:18;26.30;99.90
12434;DHT22;6281;49.038;8.372;2022-10-30T11:57:48;26.80;99.90
12434;DHT22;6281;49.038;8.372;2022-10-30T12:00:18;27.00;99.90
12434;DHT22;6281;49.038;8.372;2022-10-30T12:02:46;25.90;99.90
12434;DHT22;6281;49.038;8.372;2022-10-30T12:05:33;26.50;99.90
12434;DHT22;6281;49.038;8.372;2022-10-30T12:08:17;25.30;99.90
12434;DHT22;6281;49.038;8.372;2022-10-30T12:10:46;25.30;99.90
12434;DHT22;6281;49.038;8.372;2022-10-30T12:13:21;25.40;99.90
12434;DHT22;6281;49.038;8.372;2022-10-30T12:15:50;25.80;99.90
12434;DHT22;6281;49.038;8.372;2022-10-30T12:18:29;25.60;99.90
12434;DHT22;6281;49.038;8.372;2022-10-30T12:20:58;25.50;99.90
12434;DHT22;6281;49.038;8.372;2022-10-30T12:23:26;25.20;99.90
12434;DHT22;6281;49.038;8.372;2022-10-30T12:25:56;24.40;99.90
12434;DHT22;6281;49.038;8.372;2022-10-30T12:28:26;24.90;99.90
12434;DHT22;6281;49.038;8.372;2022-10-30T12:30:57;24.80;99.90
12434;DHT22;6281;49.038;8.372;2022-10-30T12:33:28;24.60;99.90
12434;DHT22;6281;49.038;8.372;2022-10-30T12:36:00;25.40;99.90
12434;DHT22;6281;49.038;8.372;2022-10-30T12:38:31;25.40;99.90
12434;DHT22;6281;49.038;8.372;2022-10-30T12:41:04;25.60;99.90
12434;DHT22;6281;49.038;8.372;2022-10-30T12:43:34;26.00;99.90
12434;DHT22;6281;49.038;8.372;2022-10-30T12:46:13;25.60;99.90
12434;DHT22;6281;49.038;8.372;2022-10-30T12:48:46;25.80;99.90
12434;DHT22;6281;49.038;8.372;2022-10-30T12:51:21;25.70;99.90
12434;DHT22;6281;49.038;8.372;2022-10-30T12:53:55;26.00;99.90
12434;DHT22;6281;49.038;8.372;2022-10-30T12:56:27;25.90;99.90
12434;DHT22;6281;49.038;8.372;2022-10-30T12:59:15;25.40;99.90
12434;DHT22;6281;49.038;8.372;2022-10-30T13:01:47;26.20;99.90
12434;DHT22;6281;49.038;8.372;2022-10-30T13:04:17;26.80;99.90
12434;DHT22;6281;49.038;8.372;2022-10-30T13:06:50;26.40;99.90
12434;DHT22;6281;49.038;8.372;2022-10-30T13:09:23;26.00;99.90
12434;DHT22;6281;49.038;8.372;2022-10-30T13:11:57;26.00;99.90
12434;DHT22;6281;49.038;8.372;2022-10-30T13:14:32;25.80;99.90
12434;DHT22;6281;49.038;8.372;2022-10-30T13:17:00;25.30;99.90
12434;DHT22;6281;49.038;8.372;2022-10-30T13:19:27;25.40;99.90
12434;DHT22;6281;49.038;8.372;2022-10-30T13:22:01;25.20;99.90
12434;DHT22;6281;49.038;8.372;2022-10-30T13:24:42;25.40;99.90
12434;DHT22;6281;49.038;8.372;2022-10-30T13:27:15;26.40;99.90
12434;DHT22;6281;49.038;8.372;2022-10-30T13:29:49;26.50;99.90
12434;DHT22;6281;49.038;8.372;2022-10-30T13:32:29;25.90;99.90
12434;DHT22;6281;49.038;8.372;2022-10-30T13:35:08;24.80;99.90
12434;DHT22;6281;49.038;8.372;2022-10-30T13:37:45;24.80;99.90
12434;DHT22;6281;49.038;8.372;2022-10-30T13:40:19;24.50;99.90
12434;DHT22;6281;49.038;8.372;2022-10-30T13:42:55;24.20;99.90
12434;DHT22;6281;49.038;8.372;2022-10-30T13:45:36;25.00;99.90
12434;DHT22;6281;49.038;8.372;2022-10-30T13:48:12;24.80;99.90
12434;DHT22;6281;49.038;8.372;2022-10-30T13:50:59;24.40;99.90
12434;DHT22;6281;49.038;8.372;2022-10-30T13:53:33;24.80;99.90
12434;DHT22;6281;49.038;8.372;2022-10-30T13:56:03;25.20;99.90
12434;DHT22;6281;49.038;8.372;2022-10-30T13:58:33;24.60;99.90
12434;DHT22;6281;49.038;8.372;2022-10-30T14:01:08;24.60;99.90
12434;DHT22;6281;49.038;8.372;2022-10-30T14:03:47;24.00;99.90
12434;DHT22;6281;49.038;8.372;2022-10-30T14:06:23;24.00;99.90
12434;DHT22;6281;49.038;8.372;2022-10-30T14:09:00;23.80;99.90
12434;DHT22;6281;49.038;8.372;2022-10-30T14:11:29;23.90;99.90
12434;DHT22;6281;49.038;8.372;2022-10-30T14:14:02;23.60;99.90
12434;DHT22;6281;49.038;8.372;2022-10-30T14:16:41;23.10;99.90
12434;DHT22;6281;49.038;8.372;2022-10-30T14:19:09;22.90;99.90
12434;DHT22;6281;49.038;8.372;2022-10-30T14:21:41;22.80;99.90
12434;DHT22;6281;49.038;8.372;2022-10-30T14:24:13;22.60;99.90
12434;DHT22;6281;49.038;8.372;2022-10-30T14:26:54;22.50;99.90
12434;DHT22;6281;49.038;8.372;2022-10-30T14:29:45;22.80;99.90
12434;DHT22;6281;49.038;8.372;2022-10-30T14:35:37;23.00;99.90
12434;DHT22;6281;49.038;8.372;2022-10-30T14:38:21;23.40;99.90
12434;DHT22;6281;49.038;8.372;2022-10-30T14:41:05;23.70;99.90
12434;DHT22;6281;49.038;8.372;2022-10-30T14:43:42;23.40;99.90
12434;DHT22;6281;49.038;8.372;2022-10-30T14:46:18;23.60;99.90
12434;DHT22;6281;49.038;8.372;2022-10-30T14:48:56;23.50;99.90
12434;DHT22;6281;49.038;8.372;2022-10-30T14:51:32;23.60;99.90
12434;DHT22;6281;49.038;8.372;2022-10-30T14:54:05;23.00;99.90
12434;DHT22;6281;49.038;8.372;2022-10-30T14:56:40;22.90;99.90
12434;DHT22;6281;49.038;8.372;2022-10-30T14:59:22;22.90;99.90
12434;DHT22;6281;49.038;8.372;2022-10-30T15:02:15;22.60;99.90
12434;DHT22;6281;49.038;8.372;2022-10-30T15:07:38;22.90;99.90
12434;DHT22;6281;49.038;8.372;2022-10-30T15:10:14;22.90;99.90
12434;DHT22;6281;49.038;8.372;2022-10-30T15:12:55;22.80;99.90
12434;DHT22;6281;49.038;8.372;2022-10-30T15:15:25;22.50;99.90
12434;DHT22;6281;49.038;8.372;2022-10-30T15:17:54;22.60;99.90
12434;DHT22;6281;49.038;8.372;2022-10-30T15:20:24;22.50;99.90
12434;DHT22;6281;49.038;8.372;2022-10-30T15:22:54;22.40;99.90
12434;DHT22;6281;49.038;8.372;2022-10-30T15:25:23;22.30;99.90
12434;DHT22;6281;49.038;8.372;2022-10-30T15:27:53;22.20;99.90
12434;DHT22;6281;49.038;8.372;2022-10-30T15:30:22;22.10;99.90
12434;DHT22;6281;49.038;8.372;2022-10-30T15:32:49;22.20;99.90
12434;DHT22;6281;49.038;8.372;2022-10-30T15:35:19;22.00;99.90
12434;DHT22;6281;49.038;8.372;2022-10-30T15:37:56;21.70;99.90
12434;DHT22;6281;49.038;8.372;2022-10-30T15:40:23;21.40;99.90
12434;DHT22;6281;49.038;8.372;2022-10-30T15:42:52;21.20;99.90
12434;DHT22;6281;49.038;8.372;2022-10-30T15:45:22;21.10;99.90
12434;DHT22;6281;49.038;8.372;2022-10-30T15:47:57;20.90;99.90
12434;DHT22;6281;49.038;8.372;2022-10-30T15:50:25;20.90;99.90
12434;DHT22;6281;49.038;8.372;2022-10-30T15:52:52;20.80;99.90
12434;DHT22;6281;49.038;8.372;2022-10-30T15:55:24;20.50;99.90
12434;DHT22;6281;49.038;8.372;2022-10-30T15:57:56;20.30;99.90
12434;DHT22;6281;49.038;8.372;2022-10-30T16:00:26;20.10;99.90
12434;DHT22;6281;49.038;8.372;2022-10-30T16:03:01;19.80;99.90
12434;DHT22;6281;49.038;8.372;2022-10-30T16:05:29;19.80;99.90
12434;DHT22;6281;49.038;8.372;2022-10-30T16:07:56;19.80;99.90
12434;DHT22;6281;49.038;8.372;2022-10-30T16:12:54;19.60;99.90
12434;DHT22;6281;49.038;8.372;2022-10-30T16:15:26;19.40;99.90
12434;DHT22;6281;49.038;8.372;2022-10-30T16:18:03;19.40;99.90
12434;DHT22;6281;49.038;8.372;2022-10-30T16:20:31;19.30;99.90
12434;DHT22;6281;49.038;8.372;2022-10-30T16:22:59;18.90;99.90